Flight Track Log - Related Links

Times and Time Zones

All times are in EDT time to prevent confusion due to time zone crossing. See the DAL2184 flight status page for this flight to view local times or setup timezone preferences in your user account.

Time Position Orientation Groundspeed Altitude Reporting Facility
EDT Latitude Longitude Course Direction KTS MPH feet Rate Location/Type
Sat 03:14:56 PM 33.6500 -84.5000 323° Northwest 210 242 3,400  Level Atlanta TRACON
Sat 03:15:56 PM 33.6833 -84.5667 301° West 265 305 5,800 2,579 Climbing Atlanta TRACON
Sat 03:16:00 PM 33.8191 -84.1667 North  Level FlightAware Approximate
Sat 03:16:50 PM 33.7500 -84.5833 348° North 286 329 8,300  Level Atlanta TRACON
Sat 03:17:00 PM 33.9121 -84.2454 320° Northwest  Level FlightAware Approximate
Sat 03:17:56 PM 33.8500 -84.5833 360° North 282 325 10,900  Level Atlanta TRACON
Sat 03:18:00 PM 34.0019 -84.3352 320° Northwest  Level FlightAware Approximate
Sat 03:18:46 PM 33.9142 -84.5794 North 330 380 11,700  Level Atlanta Center
Sat 03:19:00 PM 34.0941 -84.4167 North  Level FlightAware Approximate
Sat 03:19:46 PM 34.0289 -84.5853 358° North 365 420 13,500  Level Atlanta Center
Sat 03:20:00 PM 34.1885 -84.4970 323° Northwest  Level FlightAware Approximate
Sat 03:20:46 PM 34.1394 -84.5883 359° North 386 444 16,400  Level Atlanta Center
Sat 03:21:46 PM 34.2458 -84.5917 359° North 389 448 19,200 2,350 Climbing Atlanta Center
Sat 03:22:46 PM 34.3564 -84.6100 352° North 389 448 21,100 1,900 Climbing Atlanta Center
Sat 03:23:46 PM 34.4628 -84.6358 349° North 389 448 23,000 2,050 Climbing Atlanta Center
Sat 03:24:46 PM 34.5692 -84.6619 349° North 391 450 25,200 1,800 Climbing Atlanta Center
Sat 03:25:46 PM 34.6669 -84.6853 349° North 391 450 26,600 1,450 Climbing Atlanta Center
Sat 03:26:46 PM 34.7711 -84.7139 347° North 391 450 28,100 1,450 Climbing Atlanta Center
Sat 03:27:46 PM 34.8817 -84.7428 348° North 396 456 29,500 950 Climbing Atlanta Center
Sat 03:28:46 PM 34.9922 -84.7689 349° North 396 456 30,000 250 Climbing Atlanta Center
Sat 03:29:46 PM 35.1025 -84.7978 348° North 396 456 30,000  Level Atlanta Center
Sat 03:30:46 PM 35.2131 -84.8242 349° North 396 456 30,000  Level Atlanta Center
Sat 03:31:46 PM 35.3214 -84.8508 349° North 396 456 30,000  Level Atlanta Center
Sat 03:32:46 PM 35.4339 -84.8800 348° North 396 456 30,000  Level Atlanta Center
Sat 03:33:46 PM 35.5419 -84.9064 349° North 396 456 30,000  Level Atlanta Center
Sat 03:34:46 PM 35.6525 -84.9358 348° North 396 456 30,000  Level Atlanta Center
Sat 03:35:46 PM 35.7564 -84.9728 344° North 391 450 30,000  Level Atlanta Center
Sat 03:37:24 PM 35.9481 -85.0156 350° North 404 465 30,000  Level Indianapolis Center
Sat 03:38:25 PM 36.0553 -85.0406 349° North 411 473 30,000  Level Indianapolis Center
Sat 03:39:27 PM 36.1678 -85.0669 349° North 411 473 30,000  Level Indianapolis Center
Sat 03:40:28 PM 36.2808 -85.0947 349° North 411 473 30,000 -98 Level Indianapolis Center
Sat 03:41:30 PM 36.3989 -85.0972 359° North 422 486 29,800 -878 Descending Indianapolis Center
Sat 03:42:31 PM 36.5403 -85.0797 North 425 489 28,200 -1,317 Descending Indianapolis Center
Sat 03:43:33 PM 36.6578 -85.0675 North 425 489 27,100 -1,317 Descending Indianapolis Center
Sat 03:44:34 PM 36.7736 -85.0547 North 421 484 25,500 -1,610 Descending Indianapolis Center
Sat 03:45:36 PM 36.8928 -85.0414 North 421 484 23,800 -1,258 Descending Indianapolis Center
Sat 03:46:38 PM 37.0131 -85.0278 North 430 495 22,900 -1,171 Descending Indianapolis Center
Sat 03:47:39 PM 37.1372 -85.0131 North 425 489 21,400 -1,854 Descending Indianapolis Center
Sat 03:48:41 PM 37.2461 -85.0014 North 400 460 19,100 -2,195 Descending Indianapolis Center
Sat 03:49:42 PM 37.3519 -84.9894 North 387 445 16,900 -2,195 Descending Indianapolis Center
Sat 03:50:44 PM 37.4547 -84.9778 North 376 433 14,600 -2,226 Descending Indianapolis Center
Sat 03:51:46 PM 37.5558 -84.9658 North 367 422 12,300 -2,195 Descending Indianapolis Center
Sat 03:52:47 PM 37.6650 -84.9700 358° North 348 400 10,100 -1,122 Descending Indianapolis Center
Sat 03:53:49 PM 37.7253 -85.0503 314° West 319 367 10,000 -48 Descending Indianapolis Center
Sat 03:54:51 PM 37.7875 -85.1303 315° West 319 367 10,000  Level Indianapolis Center
Sat 03:55:52 PM 37.8433 -85.2133 310° West 317 365 10,000 -488 Level Indianapolis Center
Sat 03:56:54 PM 37.8808 -85.2914 301° West 272 313 9,000 -1,366 Descending Indianapolis Center
Sat 03:57:55 PM 37.9158 -85.3694 300° West 257 296 7,200 -1,707 Descending Indianapolis Center
Sat 03:58:57 PM 37.9550 -85.4492 302° West 262 302 5,500 -1,500 Descending Indianapolis Center
Sat 03:59:59 PM 37.9931 -85.5256 302° West 261 300 4,100 -927 Descending Indianapolis Center
Sat 04:01:00 PM 38.0317 -85.6064 301° West 256 295 3,600 -492 Descending Indianapolis Center
Sat 04:02:00 PM 38.1444 -85.7094 339° North  Level Estimated

Login

Don't have an account? Register now (free) for customized features, flight alerts, and more!